Time;durP1;ratioP1;P1;durP2;ratioP2;P2;SDS_P1;SDS_P2;PMS_P1;PMS_P2;Temp;Humidity;BMP_temperature;BMP_pressure;BME280_temperature;BME280_humidity;BME280_pressure;Samples;Min_cycle;Max_cycle;Signal;HPM_P1;HPM_P2
2021/12/29 00:00:31;;;;;;;33.72;4.30;;;10.20;99.90;;;;;;4206474;28;20651;-80
2021/12/29 00:02:33;;;;;;;23.55;4.20;;;10.10;99.90;;;;;;4208277;28;20044;-80
2021/12/29 00:04:36;;;;;;;32.92;4.00;;;10.10;99.90;;;;;;4225447;28;20537;-79
2021/12/29 00:06:38;;;;;;;24.63;3.33;;;10.10;99.90;;;;;;4224470;28;20126;-79
2021/12/29 00:08:40;;;;;;;29.55;3.08;;;10.10;99.90;;;;;;4225084;28;20044;-80
2021/12/29 00:10:42;;;;;;;28.75;3.47;;;10.10;99.90;;;;;;4216602;28;20128;-80
2021/12/29 00:12:49;;;;;;;26.10;3.45;;;10.10;99.90;;;;;;4207914;28;20075;-79
2021/12/29 00:14:53;;;;;;;24.42;2.72;;;10.20;99.90;;;;;;4231953;27;20187;-79
2021/12/29 00:16:56;;;;;;;19.50;2.28;;;10.10;99.90;;;;;;4206627;28;20044;-80
2021/12/29 00:19:03;;;;;;;15.15;1.90;;;10.20;99.90;;;;;;4197448;28;20050;-80
2021/12/29 00:21:06;;;;;;;13.80;1.92;;;10.20;99.90;;;;;;4199096;28;20086;-81
2021/12/29 00:23:09;;;;;;;11.20;1.70;;;10.20;99.90;;;;;;4200274;28;20143;-79
2021/12/29 00:25:13;;;;;;;;;;;10.20;99.90;;;;;;4190994;28;20044;-80
2021/12/29 00:27:15;;;;;;;11.43;2.15;;;10.30;99.90;;;;;;4197382;28;20388;-80
2021/12/29 00:29:17;;;;;;;13.30;2.78;;;10.30;99.90;;;;;;4197907;28;20072;-79
2021/12/29 00:31:20;;;;;;;15.18;2.35;;;10.30;99.90;;;;;;4196355;28;20056;-80
2021/12/29 00:33:22;;;;;;;12.02;2.20;;;10.30;99.90;;;;;;4230478;28;20103;-87
2021/12/29 00:35:24;;;;;;;13.38;2.97;;;10.30;99.90;;;;;;4201380;28;20079;-81
2021/12/29 00:37:26;;;;;;;11.02;2.90;;;10.30;99.90;;;;;;4195103;28;20131;-78
2021/12/29 00:39:28;;;;;;;10.52;2.90;;;10.30;99.90;;;;;;4194516;28;20076;-79
2021/12/29 00:41:30;;;;;;;10.02;2.67;;;10.30;99.90;;;;;;4198519;28;20059;-79
2021/12/29 00:43:32;;;;;;;14.60;2.63;;;10.30;99.90;;;;;;4199950;28;20102;-79
2021/12/29 00:45:39;;;;;;;11.65;3.03;;;10.30;99.90;;;;;;4191108;28;21030;-79
2021/12/29 00:47:42;;;;;;;11.55;3.03;;;10.30;99.90;;;;;;4196137;28;20041;-79
2021/12/29 00:49:46;;;;;;;16.35;3.15;;;10.30;99.90;;;;;;4204417;28;20072;-80
2021/12/29 00:51:48;;;;;;;8.88;3.08;;;10.30;99.90;;;;;;4201888;28;20071;-79
2021/12/29 00:53:50;;;;;;;11.85;3.15;;;10.30;99.90;;;;;;4197958;28;20128;-79
2021/12/29 00:55:52;;;;;;;13.88;3.92;;;10.40;99.90;;;;;;4187808;28;20052;-78
2021/12/29 00:57:58;;;;;;;16.23;3.47;;;10.40;99.90;;;;;;4197734;28;20087;-79
2021/12/29 01:00:00;;;;;;;10.82;3.80;;;10.40;99.90;;;;;;4197377;28;20723;-78
2021/12/29 01:02:04;;;;;;;12.10;4.40;;;10.40;99.90;;;;;;4216152;28;20101;-79
2021/12/29 01:04:06;;;;;;;10.93;3.70;;;10.40;99.90;;;;;;4197610;28;20044;-80
2021/12/29 01:06:08;;;;;;;10.95;3.65;;;10.50;99.90;;;;;;4197613;28;20076;-79
2021/12/29 01:08:13;;;;;;;8.65;3.70;;;10.50;99.90;;;;;;4196054;28;20049;-79
2021/12/29 01:10:16;;;;;;;8.77;4.18;;;10.50;99.90;;;;;;4225016;28;20557;-79
2021/12/29 01:12:17;;;;;;;14.13;4.20;;;10.60;99.90;;;;;;4203791;28;20048;-79
2021/12/29 01:14:22;;;;;;;8.38;4.03;;;10.70;99.90;;;;;;4181005;28;20136;-78
2021/12/29 01:18:39;;;;;;;10.35;3.67;;;10.90;99.90;;;;;;4195287;28;20045;-79
2021/12/29 01:20:40;;;;;;;12.27;4.07;;;11.00;99.90;;;;;;4214422;28;20099;-80
2021/12/29 01:22:42;;;;;;;12.02;4.18;;;11.10;99.90;;;;;;4214430;28;20079;-78
2021/12/29 01:24:46;;;;;;;14.95;4.43;;;11.30;99.90;;;;;;4211719;28;20051;-80
2021/12/29 01:26:49;;;;;;;11.25;4.07;;;11.40;99.90;;;;;;4202254;28;20052;-79
2021/12/29 01:28:51;;;;;;;12.15;4.28;;;11.50;99.90;;;;;;4196933;28;20127;-77
2021/12/29 01:30:53;;;;;;;10.75;3.85;;;11.50;99.90;;;;;;4196594;28;20531;-80
2021/12/29 01:32:55;;;;;;;12.82;4.40;;;11.60;99.90;;;;;;4197190;28;20053;-79
2021/12/29 01:34:57;;;;;;;11.75;4.03;;;11.70;99.90;;;;;;4197830;28;20064;-79
2021/12/29 01:37:00;;;;;;;11.60;3.85;;;11.80;99.90;;;;;;4197259;28;20246;-79
2021/12/29 01:39:04;;;;;;;8.77;3.70;;;11.80;99.90;;;;;;4195156;28;20451;-80
2021/12/29 01:41:06;;;;;;;9.05;3.67;;;11.80;99.90;;;;;;4209956;28;20063;-79
2021/12/29 01:43:09;;;;;;;12.25;3.78;;;11.90;99.90;;;;;;4214009;28;20083;-79
2021/12/29 01:45:12;;;;;;;10.98;4.00;;;11.90;99.90;;;;;;4206996;28;20052;-79
2021/12/29 01:47:25;;;;;;;10.35;3.72;;;11.90;99.90;;;;;;4196987;28;20052;-78
2021/12/29 01:49:27;;;;;;;11.68;3.53;;;12.00;99.90;;;;;;4213287;28;20087;-78
2021/12/29 01:51:30;;;;;;;13.73;4.10;;;12.10;99.90;;;;;;4197687;28;20048;-79
2021/12/29 01:53:34;;;;;;;13.88;3.55;;;12.10;99.90;;;;;;4197551;28;20076;-79
2021/12/29 01:55:37;;;;;;;13.57;4.03;;;12.10;99.90;;;;;;4195592;28;20547;-79
2021/12/29 01:57:40;;;;;;;9.30;3.88;;;12.10;99.90;;;;;;4198634;28;20124;-80
2021/12/29 01:59:42;;;;;;;20.60;4.32;;;12.20;99.90;;;;;;4213870;28;20095;-78
2021/12/29 02:01:43;;;;;;;15.65;3.60;;;12.10;99.90;;;;;;4211674;28;20523;-79
2021/12/29 02:03:47;;;;;;;13.05;3.40;;;12.20;99.90;;;;;;4196162;28;20062;-80
2021/12/29 02:05:49;;;;;;;13.38;3.60;;;12.20;99.90;;;;;;4213962;28;20431;-79
2021/12/29 02:07:51;;;;;;;12.32;3.40;;;12.20;99.90;;;;;;4204770;28;20071;-79
2021/12/29 02:09:54;;;;;;;18.92;3.67;;;12.30;99.90;;;;;;4205561;28;20114;-79
2021/12/29 02:12:01;;;;;;;11.43;3.55;;;12.30;99.90;;;;;;4197484;28;20055;-79
2021/12/29 02:14:06;;;;;;;16.38;3.38;;;12.30;99.90;;;;;;4197014;28;20048;-81
2021/12/29 02:16:08;;;;;;;20.90;3.97;;;12.40;99.90;;;;;;4208667;28;20113;-79
2021/12/29 02:18:15;;;;;;;17.38;3.83;;;12.40;99.90;;;;;;4213668;28;20051;-79
2021/12/29 02:20:21;;;;;;;13.07;3.05;;;12.50;99.90;;;;;;4207936;28;20075;-79
2021/12/29 02:22:45;;;;;;;15.48;3.65;;;12.60;99.90;;;;;;4213730;28;20093;-79
2021/12/29 02:24:53;;;;;;;12.65;3.35;;;12.60;99.90;;;;;;4213807;28;20048;-78
2021/12/29 02:26:58;;;;;;;11.70;3.08;;;12.60;99.90;;;;;;4199196;28;20119;-81
2021/12/29 02:29:03;;;;;;;15.70;3.55;;;12.60;99.90;;;;;;4199910;28;20070;-79
2021/12/29 02:31:05;;;;;;;17.27;3.13;;;12.60;99.90;;;;;;4197825;28;20048;-79
2021/12/29 02:33:07;;;;;;;14.68;3.42;;;12.60;99.90;;;;;;4197502;28;20041;-78
2021/12/29 02:35:11;;;;;;;12.60;2.78;;;12.70;99.90;;;;;;4193372;28;20045;-78
2021/12/29 02:37:19;;;;;;;14.82;3.33;;;12.70;99.90;;;;;;4193500;28;20552;-81
2021/12/29 02:39:23;;;;;;;14.38;2.58;;;12.80;99.90;;;;;;4198816;28;20044;-78
2021/12/29 02:41:27;;;;;;;10.70;2.50;;;12.80;99.90;;;;;;4197995;28;20052;-78
2021/12/29 02:43:31;;;;;;;16.35;2.42;;;12.80;99.90;;;;;;4198633;28;20048;-78
2021/12/29 02:45:34;;;;;;;13.45;2.45;;;12.80;99.90;;;;;;4202947;28;20064;-80
2021/12/29 02:47:36;;;;;;;12.57;2.53;;;12.80;99.90;;;;;;4199981;28;20052;-79
2021/12/29 02:49:38;;;;;;;18.83;2.70;;;12.90;99.90;;;;;;4200480;28;20082;-80
2021/12/29 02:51:40;;;;;;;11.77;2.85;;;12.90;99.90;;;;;;4196450;28;20053;-78
2021/12/29 02:53:42;;;;;;;14.57;2.85;;;13.00;99.90;;;;;;4208078;28;20040;-80
2021/12/29 02:55:44;;;;;;;17.15;2.97;;;13.00;99.90;;;;;;4209116;28;20059;-78
2021/12/29 02:57:46;;;;;;;14.93;2.20;;;13.00;99.90;;;;;;4195635;28;20053;-78
2021/12/29 02:59:48;;;;;;;10.02;2.03;;;13.10;99.90;;;;;;4196142;28;20508;-78
2021/12/29 03:01:51;;;;;;;14.02;2.03;;;13.10;99.90;;;;;;4196375;28;20118;-78
2021/12/29 03:03:57;;;;;;;13.25;1.77;;;13.10;99.90;;;;;;4196230;28;20080;-78
2021/12/29 03:06:01;;;;;;;13.73;1.80;;;13.10;99.90;;;;;;4196033;28;20083;-78
2021/12/29 03:08:03;;;;;;;9.10;1.90;;;13.20;99.90;;;;;;4194460;28;20072;-79
2021/12/29 03:10:05;;;;;;;13.27;1.90;;;13.20;99.90;;;;;;4195925;28;20080;-78
2021/12/29 03:12:07;;;;;;;6.88;1.38;;;13.20;99.90;;;;;;4213412;28;20495;-77
2021/12/29 03:14:10;;;;;;;7.43;1.60;;;13.20;99.90;;;;;;4195934;28;20093;-81
2021/12/29 03:16:12;;;;;;;9.73;2.40;;;13.20;99.90;;;;;;4196311;28;20055;-77
2021/12/29 03:18:15;;;;;;;8.60;1.55;;;13.20;99.90;;;;;;4196157;28;20571;-78
2021/12/29 03:20:17;;;;;;;8.32;1.83;;;13.20;99.90;;;;;;4201702;28;20423;-81
2021/12/29 03:22:19;;;;;;;8.27;1.20;;;13.20;99.90;;;;;;4198958;28;20555;-78
2021/12/29 03:24:21;;;;;;;10.02;1.45;;;13.20;99.90;;;;;;4195585;28;20072;-78
2021/12/29 03:26:23;;;;;;;11.32;1.40;;;13.20;99.90;;;;;;4195768;28;20045;-79
2021/12/29 03:28:25;;;;;;;13.35;1.50;;;13.20;99.90;;;;;;4179546;28;20045;-77
2021/12/29 03:30:30;;;;;;;6.18;1.25;;;13.20;99.90;;;;;;4179661;28;20069;-78
2021/12/29 03:32:42;;;;;;;7.32;1.13;;;13.20;99.90;;;;;;4179664;28;20080;-77
2021/12/29 03:34:44;;;;;;;9.98;1.20;;;13.20;99.90;;;;;;4191252;28;20075;-79
2021/12/29 03:36:46;;;;;;;14.73;1.50;;;13.20;99.90;;;;;;4187374;28;20528;-78
2021/12/29 03:38:48;;;;;;;6.78;1.20;;;13.20;99.90;;;;;;4195090;28;20691;-77
2021/12/29 03:40:52;;;;;;;5.45;1.02;;;13.20;99.90;;;;;;4184354;28;20049;-78
2021/12/29 03:42:55;;;;;;;4.47;0.88;;;13.20;99.90;;;;;;4184217;28;20091;-77
2021/12/29 03:44:58;;;;;;;4.50;0.80;;;13.20;99.90;;;;;;4185144;28;20687;-78
2021/12/29 03:47:00;;;;;;;5.93;0.93;;;13.20;99.90;;;;;;4194516;28;20048;-77
2021/12/29 03:49:02;;;;;;;3.65;0.88;;;13.20;99.90;;;;;;4195850;28;20099;-77
2021/12/29 03:51:05;;;;;;;1.95;0.70;;;13.20;99.90;;;;;;4196020;28;20083;-77
2021/12/29 03:53:09;;;;;;;2.65;0.63;;;13.30;99.90;;;;;;4197948;28;20504;-76
2021/12/29 03:55:11;;;;;;;3.13;0.40;;;13.30;99.90;;;;;;4202374;28;20128;-78
2021/12/29 03:57:13;;;;;;;2.83;0.63;;;13.40;99.90;;;;;;4199001;28;20056;-78
2021/12/29 03:59:16;;;;;;;5.82;0.88;;;13.40;99.90;;;;;;4198935;28;20041;-78
2021/12/29 04:01:20;;;;;;;5.47;0.77;;;13.20;99.90;;;;;;4199123;28;20562;-78
2021/12/29 04:03:23;;;;;;;6.80;1.10;;;13.20;99.90;;;;;;4198953;28;20558;-78
2021/12/29 04:05:25;;;;;;;2.40;0.55;;;13.20;99.90;;;;;;4197337;28;20135;-78
2021/12/29 04:07:27;;;;;;;5.00;0.70;;;13.20;99.90;;;;;;4214649;28;20058;-78
2021/12/29 04:09:29;;;;;;;3.13;0.50;;;13.30;99.90;;;;;;4197831;28;20080;-78
2021/12/29 04:11:30;;;;;;;4.78;0.70;;;13.30;99.90;;;;;;4182343;28;20073;-77
2021/12/29 04:13:32;;;;;;;6.50;0.65;;;13.20;99.90;;;;;;4193271;28;20072;-78
2021/12/29 04:15:36;;;;;;;1.90;0.70;;;13.30;99.90;;;;;;4198697;28;20067;-78
2021/12/29 04:17:40;;;;;;;2.60;0.50;;;13.30;99.90;;;;;;4198763;28;20110;-78
2021/12/29 04:22:03;;;;;;;3.40;0.70;;;13.30;99.90;;;;;;4199793;28;20083;-78
2021/12/29 04:24:06;;;;;;;1.77;0.68;;;13.30;99.90;;;;;;4188540;28;20108;-78
2021/12/29 04:26:08;;;;;;;1.60;0.57;;;13.40;99.90;;;;;;4197939;28;20044;-78
2021/12/29 04:28:15;;;;;;;2.35;0.45;;;13.40;99.90;;;;;;4195427;28;20136;-79
2021/12/29 04:30:17;;;;;;;2.50;0.50;;;13.40;99.90;;;;;;4185868;28;20083;-78
2021/12/29 04:32:19;;;;;;;5.82;0.70;;;13.40;99.90;;;;;;4197720;28;20127;-77
2021/12/29 04:34:21;;;;;;;3.58;0.47;;;13.40;99.90;;;;;;4196364;28;20102;-77
2021/12/29 04:36:26;;;;;;;1.85;0.50;;;13.40;99.90;;;;;;4197872;28;20099;-78
2021/12/29 04:38:28;;;;;;;2.30;0.40;;;13.40;99.90;;;;;;4198524;28;20575;-77
2021/12/29 04:40:30;;;;;;;3.88;0.50;;;13.40;99.90;;;;;;4197156;28;20146;-77
2021/12/29 04:42:32;;;;;;;1.98;0.63;;;13.40;99.90;;;;;;4194676;28;20049;-78
2021/12/29 04:44:34;;;;;;;0.70;0.32;;;13.40;99.90;;;;;;4182178;28;20047;-77
2021/12/29 04:46:39;;;;;;;3.17;0.65;;;13.40;99.90;;;;;;4182267;28;20057;-77
2021/12/29 04:48:47;;;;;;;6.55;0.90;;;13.40;99.90;;;;;;4182727;28;20052;-77
2021/12/29 04:50:54;;;;;;;2.13;0.50;;;13.40;99.90;;;;;;4194683;28;20052;-79
2021/12/29 04:53:00;;;;;;;1.80;0.70;;;13.40;99.90;;;;;;4200817;28;20059;-76
2021/12/29 04:55:03;;;;;;;2.90;0.40;;;13.40;99.90;;;;;;4193715;28;20052;-78
2021/12/29 04:57:05;;;;;;;5.00;0.40;;;13.40;99.90;;;;;;4201284;28;20063;-78
2021/12/29 04:59:07;;;;;;;0.60;0.28;;;13.40;99.90;;;;;;4202258;28;20040;-82
2021/12/29 05:01:10;;;;;;;2.38;0.70;;;13.40;99.90;;;;;;4202469;28;20075;-78
2021/12/29 05:03:13;;;;;;;3.08;0.85;;;13.40;99.90;;;;;;4193431;28;20513;-78
2021/12/29 05:10:03;;;;;;;0.93;0.22;;;13.50;99.90;;;;;;4199306;28;20076;-77
2021/12/29 05:12:06;;;;;;;0.40;0.30;;;13.50;99.90;;;;;;4204352;28;20048;-77
2021/12/29 05:14:08;;;;;;;5.30;0.55;;;13.50;99.90;;;;;;4197949;28;20531;-77
2021/12/29 05:16:11;;;;;;;2.67;0.40;;;13.50;99.90;;;;;;4213096;28;20044;-77
2021/12/29 05:18:12;;;;;;;3.55;0.60;;;13.40;99.90;;;;;;4197677;28;20222;-77
2021/12/29 05:20:14;;;;;;;3.30;0.40;;;13.40;99.90;;;;;;4197920;28;20083;-77
2021/12/29 05:22:16;;;;;;;1.30;0.40;;;13.40;99.90;;;;;;4199918;28;20068;-78
2021/12/29 05:24:19;;;;;;;3.80;0.40;;;13.50;99.90;;;;;;4214668;28;20082;-77
2021/12/29 05:26:21;;;;;;;1.80;0.38;;;13.50;99.90;;;;;;4197596;28;20726;-77
2021/12/29 05:28:24;;;;;;;1.02;0.30;;;13.50;99.90;;;;;;4190058;28;20080;-78
2021/12/29 05:30:26;;;;;;;2.97;0.52;;;13.40;99.90;;;;;;4197883;28;20048;-78
2021/12/29 05:32:30;;;;;;;2.40;0.30;;;13.40;99.90;;;;;;4197156;28;20055;-79
2021/12/29 05:34:32;;;;;;;7.25;0.45;;;13.40;99.90;;;;;;4198264;28;20056;-77
2021/12/29 05:36:34;;;;;;;2.55;0.50;;;13.40;99.90;;;;;;4197419;28;20128;-76
2021/12/29 05:38:36;;;;;;;1.55;0.38;;;13.40;99.90;;;;;;4201967;28;20052;-77
2021/12/29 05:40:38;;;;;;;7.00;0.50;;;13.40;99.90;;;;;;4191237;28;20049;-77
2021/12/29 05:42:40;;;;;;;1.95;0.60;;;13.40;99.90;;;;;;4196459;28;20098;-77
2021/12/29 05:44:42;;;;;;;5.68;0.50;;;13.40;99.90;;;;;;4192330;28;20507;-78
2021/12/29 05:46:44;;;;;;;3.95;0.57;;;13.40;99.90;;;;;;4181271;28;20045;-78
2021/12/29 05:48:46;;;;;;;3.70;0.38;;;13.40;99.90;;;;;;4180869;28;20049;-77
2021/12/29 05:50:48;;;;;;;6.38;0.60;;;13.40;99.90;;;;;;4181273;28;20045;-77
2021/12/29 05:52:50;;;;;;;2.00;0.47;;;13.40;99.90;;;;;;4195148;28;20531;-77
2021/12/29 05:54:52;;;;;;;1.70;0.50;;;13.40;99.90;;;;;;4200444;28;20524;-81
2021/12/29 05:56:54;;;;;;;4.13;0.65;;;13.40;99.90;;;;;;4200245;28;20542;-80
2021/12/29 05:58:59;;;;;;;2.00;0.50;;;13.40;99.90;;;;;;4196649;28;20424;-78
2021/12/29 06:01:01;;;;;;;4.95;0.70;;;13.30;99.90;;;;;;4199496;28;20049;-78
2021/12/29 06:03:04;;;;;;;1.98;0.47;;;13.30;99.90;;;;;;4198091;28;20533;-77
2021/12/29 06:05:09;;;;;;;5.13;0.40;;;13.30;99.90;;;;;;4197402;28;20123;-77
2021/12/29 06:07:12;;;;;;;6.57;0.70;;;13.30;99.90;;;;;;4195202;28;20058;-77
2021/12/29 06:09:14;;;;;;;5.07;0.60;;;13.20;99.90;;;;;;4197123;28;20083;-77
2021/12/29 06:11:17;;;;;;;12.60;0.82;;;13.20;99.90;;;;;;4214385;28;20051;-77
2021/12/29 06:13:19;;;;;;;6.40;0.80;;;13.20;99.90;;;;;;4197131;28;20076;-78
2021/12/29 06:15:22;;;;;;;6.35;0.75;;;13.20;99.90;;;;;;4196656;28;20063;-77
2021/12/29 06:17:24;;;;;;;2.95;0.40;;;13.10;99.90;;;;;;4195850;28;20055;-79
2021/12/29 06:19:26;;;;;;;8.85;0.80;;;13.10;99.90;;;;;;4197259;28;20563;-77
2021/12/29 06:21:27;;;;;;;4.00;0.50;;;13.10;99.90;;;;;;4213307;28;20052;-78
2021/12/29 06:23:29;;;;;;;7.00;1.67;;;13.00;99.90;;;;;;4197533;28;20040;-77
2021/12/29 06:25:31;;;;;;;2.78;0.63;;;13.00;99.90;;;;;;4198988;28;20052;-78
2021/12/29 06:27:33;;;;;;;6.22;0.65;;;13.00;99.90;;;;;;4197906;28;20037;-80
2021/12/29 06:29:36;;;;;;;2.95;0.65;;;13.10;99.90;;;;;;4199082;28;20072;-81
2021/12/29 06:31:39;;;;;;;2.88;0.57;;;13.10;99.90;;;;;;4196867;28;20094;-78
2021/12/29 06:33:41;;;;;;;2.47;0.50;;;13.10;99.90;;;;;;4197159;28;20072;-78
2021/12/29 06:35:43;;;;;;;2.35;0.40;;;13.20;99.90;;;;;;4195805;28;20072;-78
2021/12/29 06:37:45;;;;;;;1.75;0.52;;;13.30;99.90;;;;;;4196168;28;20044;-79
2021/12/29 06:39:47;;;;;;;5.05;0.50;;;13.30;99.90;;;;;;4196677;28;20079;-78
2021/12/29 06:41:49;;;;;;;6.28;0.60;;;13.30;99.90;;;;;;4197556;28;20072;-79
2021/12/29 06:43:51;;;;;;;4.57;0.40;;;13.30;99.90;;;;;;4192561;28;20044;-78
2021/12/29 06:45:53;;;;;;;8.45;0.50;;;13.30;99.90;;;;;;4195851;28;20487;-78
2021/12/29 06:47:55;;;;;;;3.80;0.50;;;13.30;99.90;;;;;;4196606;28;20052;-77
2021/12/29 06:49:57;;;;;;;2.15;0.30;;;13.30;99.90;;;;;;4196481;28;20131;-80
2021/12/29 06:52:00;;;;;;;2.70;0.47;;;13.30;99.90;;;;;;4196660;28;20439;-77
2021/12/29 06:54:02;;;;;;;2.92;0.30;;;13.30;99.90;;;;;;4196583;28;20048;-78
2021/12/29 06:56:05;;;;;;;2.53;0.52;;;13.30;99.90;;;;;;4196800;28;20075;-79
2021/12/29 06:58:07;;;;;;;3.28;0.50;;;13.40;99.90;;;;;;4199271;28;20066;-78
2021/12/29 07:00:10;;;;;;;5.93;0.65;;;13.40;99.90;;;;;;4198116;28;20068;-78
2021/12/29 07:02:14;;;;;;;1.45;0.40;;;13.40;99.90;;;;;;4197319;28;20048;-79
2021/12/29 07:04:17;;;;;;;2.78;0.40;;;13.30;99.90;;;;;;4197665;28;20494;-78
2021/12/29 07:06:19;;;;;;;2.67;0.40;;;13.30;99.90;;;;;;4195971;28;20125;-78
2021/12/29 07:08:22;;;;;;;6.88;0.40;;;13.30;99.90;;;;;;4197828;28;20071;-78
2021/12/29 07:10:25;;;;;;;3.60;0.57;;;13.30;99.90;;;;;;4198276;28;20044;-78
2021/12/29 07:12:27;;;;;;;3.72;0.50;;;13.20;99.90;;;;;;4198717;28;20864;-78
2021/12/29 07:14:29;;;;;;;2.85;0.32;;;13.20;99.90;;;;;;4200569;28;20064;-85
2021/12/29 07:16:32;;;;;;;1.95;0.30;;;13.20;99.90;;;;;;4203606;28;20068;-82
2021/12/29 07:18:34;;;;;;;4.30;0.90;;;13.20;99.90;;;;;;4198239;28;20110;-78
2021/12/29 07:20:38;;;;;;;3.42;0.90;;;13.20;99.90;;;;;;4204197;28;20459;-78
2021/12/29 07:22:40;;;;;;;3.50;1.33;;;13.20;99.90;;;;;;4213106;28;20044;-77
2021/12/29 07:24:42;;;;;;;2.05;0.57;;;13.30;99.90;;;;;;4212964;28;20138;-78
2021/12/29 07:26:44;;;;;;;1.48;0.50;;;13.30;99.90;;;;;;4212976;28;20118;-78
2021/12/29 07:28:47;;;;;;;5.38;1.63;;;13.40;99.90;;;;;;4214935;28;20515;-79
2021/12/29 07:30:49;;;;;;;4.32;0.70;;;13.50;99.90;;;;;;4199623;28;20566;-79
2021/12/29 07:32:51;;;;;;;5.95;1.40;;;13.60;99.90;;;;;;4199659;28;20127;-79
2021/12/29 07:34:53;;;;;;;3.53;1.58;;;13.60;99.90;;;;;;4200202;28;20767;-79
2021/12/29 07:36:55;;;;;;;3.25;1.10;;;13.60;99.90;;;;;;4199474;28;20056;-78
2021/12/29 07:38:57;;;;;;;5.38;2.08;;;13.70;99.90;;;;;;4199508;28;20143;-79
2021/12/29 07:40:59;;;;;;;3.28;1.70;;;13.80;99.90;;;;;;4200778;28;20056;-79
2021/12/29 07:43:02;;;;;;;3.40;0.88;;;13.80;99.90;;;;;;4199277;28;20044;-79
2021/12/29 07:45:07;;;;;;;5.47;0.90;;;13.80;99.90;;;;;;4193676;28;20048;-79
2021/12/29 07:47:10;;;;;;;3.55;0.50;;;13.70;99.90;;;;;;4197714;28;20048;-79
2021/12/29 07:49:13;;;;;;;2.75;0.50;;;13.70;99.90;;;;;;4199413;28;20612;-79
2021/12/29 07:51:16;;;;;;;1.55;0.52;;;13.70;99.90;;;;;;4199441;28;20079;-79
2021/12/29 07:53:19;;;;;;;3.08;0.68;;;13.70;99.90;;;;;;4197428;28;20084;-78
2021/12/29 07:55:21;;;;;;;7.20;0.65;;;13.70;99.90;;;;;;4198702;28;20044;-78
2021/12/29 07:57:23;;;;;;;10.05;2.05;;;13.70;99.90;;;;;;4210670;28;20075;-79
2021/12/29 07:59:25;;;;;;;4.28;1.00;;;13.70;99.90;;;;;;4199235;28;20052;-79
2021/12/29 08:01:27;;;;;;;2.88;0.40;;;13.70;99.90;;;;;;4199597;28;20052;-79
2021/12/29 08:03:30;;;;;;;5.65;0.60;;;13.60;99.90;;;;;;4183292;28;20124;-78
2021/12/29 08:05:32;;;;;;;4.80;1.10;;;13.60;99.90;;;;;;4198767;28;20444;-79
2021/12/29 08:07:34;;;;;;;4.22;0.80;;;13.60;99.90;;;;;;4199122;28;20044;-79
2021/12/29 08:09:36;;;;;;;5.38;0.70;;;13.60;99.90;;;;;;4198848;28;20120;-79
2021/12/29 08:11:40;;;;;;;5.40;0.90;;;13.60;99.90;;;;;;4199276;28;20045;-79
2021/12/29 08:13:41;;;;;;;6.55;1.00;;;13.50;99.90;;;;;;4202513;28;20048;-78
2021/12/29 08:15:45;;;;;;;1.83;0.50;;;13.50;99.90;;;;;;4200235;28;20049;-79
2021/12/29 08:17:46;;;;;;;3.95;0.80;;;13.50;99.90;;;;;;4203019;28;20555;-79
2021/12/29 08:19:50;;;;;;;7.35;0.70;;;13.40;99.90;;;;;;4199745;28;20048;-79
2021/12/29 08:21:52;;;;;;;3.05;1.00;;;13.40;99.90;;;;;;4198953;28;20059;-79
2021/12/29 08:23:54;;;;;;;6.50;1.42;;;13.30;99.90;;;;;;4200119;28;20049;-79
2021/12/29 08:25:56;;;;;;;4.45;1.10;;;13.40;99.90;;;;;;4197631;28;20057;-78
2021/12/29 08:27:58;;;;;;;6.60;0.93;;;13.30;99.90;;;;;;4198406;28;20060;-79
2021/12/29 08:30:00;;;;;;;6.10;0.88;;;13.30;99.90;;;;;;4197921;28;20063;-79
2021/12/29 08:32:03;;;;;;;3.60;0.60;;;13.20;99.90;;;;;;4198854;28;20045;-79
2021/12/29 08:34:05;;;;;;;7.43;0.80;;;13.20;99.90;;;;;;4197952;28;20051;-79
2021/12/29 08:36:08;;;;;;;3.08;0.80;;;13.20;99.90;;;;;;4200395;28;20052;-79
2021/12/29 08:38:10;;;;;;;9.70;1.10;;;13.20;99.90;;;;;;4198884;28;20049;-79
2021/12/29 08:40:12;;;;;;;6.30;0.90;;;13.20;99.90;;;;;;4198607;28;20123;-79
2021/12/29 08:42:14;;;;;;;5.18;1.00;;;13.10;99.90;;;;;;4199673;28;20412;-79
2021/12/29 08:44:17;;;;;;;5.43;0.90;;;13.10;99.90;;;;;;4194144;28;20052;-79
2021/12/29 08:46:20;;;;;;;6.80;0.93;;;13.10;99.90;;;;;;4194460;28;20056;-79
2021/12/29 08:48:22;;;;;;;10.38;0.80;;;13.20;99.90;;;;;;4196078;28;20158;-78
2021/12/29 08:50:32;;;;;;;2.47;0.80;;;13.20;99.90;;;;;;4198543;28;20126;-78
2021/12/29 08:52:35;;;;;;;4.78;0.90;;;13.20;99.90;;;;;;4197298;28;20519;-79
2021/12/29 08:54:39;;;;;;;8.13;1.05;;;13.20;99.90;;;;;;4198904;28;20048;-78
2021/12/29 08:56:41;;;;;;;10.70;1.52;;;13.20;99.90;;;;;;4199111;28;20077;-78
2021/12/29 08:58:44;;;;;;;8.82;1.10;;;13.20;99.90;;;;;;4199023;28;20072;-79
2021/12/29 09:00:46;;;;;;;8.57;1.50;;;13.20;99.90;;;;;;4198059;28;20059;-78
2021/12/29 09:02:49;;;;;;;10.07;1.58;;;13.20;99.90;;;;;;4199370;28;20052;-78
2021/12/29 09:04:51;;;;;;;7.18;1.30;;;13.20;99.90;;;;;;4199210;28;20057;-79
2021/12/29 09:06:53;;;;;;;7.82;1.15;;;13.20;99.90;;;;;;4196994;28;20127;-79
2021/12/29 09:08:55;;;;;;;13.52;1.33;;;13.20;99.90;;;;;;4203344;28;20075;-78
2021/12/29 09:10:57;;;;;;;10.23;1.38;;;13.30;99.90;;;;;;4198388;28;20075;-78
2021/12/29 09:12:59;;;;;;;12.32;1.70;;;13.30;99.90;;;;;;4198147;28;20048;-78
2021/12/29 09:15:03;;;;;;;17.52;2.03;;;13.30;99.90;;;;;;4198384;28;20132;-78
2021/12/29 09:17:05;;;;;;;20.58;2.03;;;13.30;99.90;;;;;;4197313;28;20040;-78
2021/12/29 09:19:11;;;;;;;13.30;1.80;;;13.20;99.90;;;;;;4198170;28;20052;-79
2021/12/29 09:21:16;;;;;;;11.00;1.70;;;13.20;99.90;;;;;;4200380;28;20047;-79
2021/12/29 09:23:18;;;;;;;9.48;1.95;;;13.20;99.90;;;;;;4199260;28;20079;-79
2021/12/29 09:25:21;;;;;;;5.97;1.25;;;13.20;99.90;;;;;;4198673;28;20481;-78
2021/12/29 09:27:23;;;;;;;10.80;1.40;;;13.20;99.90;;;;;;4198646;28;20421;-78
2021/12/29 09:29:25;;;;;;;6.55;1.60;;;13.20;99.90;;;;;;4203721;28;20087;-79
2021/12/29 09:31:27;;;;;;;5.25;1.83;;;13.10;99.90;;;;;;4199358;28;20114;-81
2021/12/29 09:33:29;;;;;;;7.97;1.50;;;13.20;99.90;;;;;;4199988;28;20119;-81
2021/12/29 09:35:31;;;;;;;16.60;2.00;;;13.20;99.90;;;;;;4199440;28;20044;-79
2021/12/29 09:37:36;;;;;;;8.07;1.00;;;13.30;99.90;;;;;;4198148;28;20633;-79
2021/12/29 09:39:38;;;;;;;7.45;1.65;;;13.20;99.90;;;;;;4197236;28;20147;-78
2021/12/29 09:41:40;;;;;;;8.18;1.27;;;13.20;99.90;;;;;;4197646;28;20072;-78
2021/12/29 09:43:44;;;;;;;5.95;1.30;;;13.20;99.90;;;;;;4197528;28;20048;-79
2021/12/29 09:45:48;;;;;;;3.88;1.23;;;13.20;99.90;;;;;;4197693;28;20048;-79
2021/12/29 09:47:50;;;;;;;5.38;1.55;;;13.20;99.90;;;;;;4184657;28;20052;-79
2021/12/29 09:49:52;;;;;;;6.70;1.42;;;13.20;99.90;;;;;;4206654;28;20466;-78
2021/12/29 09:51:54;;;;;;;6.43;1.40;;;13.30;99.90;;;;;;4214363;28;20076;-79
2021/12/29 09:53:56;;;;;;;9.35;1.33;;;13.30;99.90;;;;;;4214355;28;20075;-79
2021/12/29 09:55:58;;;;;;;6.13;1.67;;;13.40;99.90;;;;;;4206921;28;20079;-79
2021/12/29 09:58:03;;;;;;;7.40;1.10;;;13.40;99.90;;;;;;4197315;28;20060;-78
2021/12/29 10:00:09;;;;;;;10.80;1.88;;;13.40;99.90;;;;;;4214931;28;20513;-78
2021/12/29 10:02:11;;;;;;;7.53;1.70;;;13.40;99.90;;;;;;4198065;28;20057;-79
2021/12/29 10:04:14;;;;;;;5.93;1.40;;;13.40;99.90;;;;;;4203548;28;20128;-79
2021/12/29 10:06:16;;;;;;;5.47;1.35;;;13.40;99.90;;;;;;4197621;28;20060;-78
2021/12/29 10:08:25;;;;;;;8.70;1.33;;;13.50;99.90;;;;;;4196591;28;20074;-78
2021/12/29 10:10:28;;;;;;;5.93;1.00;;;13.50;99.90;;;;;;4196759;28;20140;-78
2021/12/29 10:12:40;;;;;;;5.55;1.00;;;13.70;99.90;;;;;;4196952;28;20052;-79
2021/12/29 10:14:51;;;;;;;4.35;1.00;;;13.80;99.90;;;;;;4196487;28;20048;-78
2021/12/29 10:16:54;;;;;;;5.22;1.75;;;13.80;99.90;;;;;;4199681;28;20094;-78
2021/12/29 10:19:05;;;;;;;5.45;1.10;;;13.80;99.90;;;;;;4197398;28;20094;-78
2021/12/29 10:21:16;;;;;;;5.07;0.93;;;13.80;99.90;;;;;;4197197;28;20076;-78
2021/12/29 10:23:24;;;;;;;6.05;0.90;;;13.90;99.90;;;;;;4196245;28;20086;-79
2021/12/29 10:25:26;;;;;;;9.45;1.17;;;13.90;99.90;;;;;;4196937;28;20076;-79
2021/12/29 10:27:30;;;;;;;4.13;0.90;;;13.80;99.90;;;;;;4196189;28;20084;-79
2021/12/29 10:29:32;;;;;;;9.75;1.10;;;13.80;99.90;;;;;;4202819;28;20152;-79
2021/12/29 10:31:44;;;;;;;7.65;1.25;;;13.80;99.90;;;;;;4196948;28;20075;-79
2021/12/29 10:33:47;;;;;;;8.88;1.30;;;13.70;99.90;;;;;;4196841;28;20086;-78
2021/12/29 10:35:49;;;;;;;9.07;1.13;;;13.60;99.90;;;;;;4194639;28;20079;-78
2021/12/29 10:37:54;;;;;;;8.50;1.30;;;13.60;99.90;;;;;;4196600;28;20048;-79
2021/12/29 10:39:58;;;;;;;10.50;1.70;;;13.50;99.90;;;;;;4197075;28;20075;-78
2021/12/29 10:42:02;;;;;;;13.33;2.10;;;13.40;99.90;;;;;;4196778;28;20060;-78
2021/12/29 10:44:05;;;;;;;13.88;2.40;;;13.30;99.90;;;;;;4196974;28;20774;-79
2021/12/29 10:46:21;;;;;;;20.95;4.25;;;13.30;99.90;;;;;;4197274;28;20063;-78